Date,TemperatureHighF,TemperatureAvgF,TemperatureLowF,DewpointHighF,DewpointAvgF,DewpointLowF,HumidityHigh,HumidityAvg,HumidityLow,PressureMaxIn,PressureMinIn,WindSpeedMaxMPH,WindSpeedAvgMPH,GustSpeedMaxMPH,PrecipitationSumIn
2014-1-3,14,14,13,5,5,4,67,66,64,0.00,40.00,15,13,0,0.00
2014-1-4,30,24,14,28,14,-100,96,69,58,0.00,40.00,16,10,0,0.03
2014-1-5,29,25,19,28,23,17,96,93,88,0.00,40.00,15,7,0,0.00
2014-1-6,17,0,-6,15,-4,-11,89,81,76,0.00,40.00,20,14,0,0.00
2014-1-7,0,-3,-9,-5,-8,-14,82,80,79,0.00,40.00,12,10,0,0.00
2014-1-8,16,5,-10,13,1,-15,87,83,78,0.00,40.00,6,3,0,0.00
2014-1-9,21,9,-1,19,6,-5,91,87,82,0.00,40.00,8,4,0,0.00
2014-1-10,41,32,23,39,30,21,97,94,92,0.00,40.00,13,8,0,0.78
2014-1-11,41,36,32,39,32,-100,96,89,80,0.00,40.00,11,9,0,0.16
2014-1-12,42,33,29,28,26,25,86,75,57,0.00,40.00,17,11,0,0.00
2014-1-13,44,41,34,33,31,28,86,69,55,0.00,40.00,16,9,0,0.00
2014-1-14,35,29,22,30,23,18,94,78,60,0.00,40.00,15,9,0,0.01
2014-1-15,25,21,14,20,16,8,89,80,70,0.00,40.00,17,10,0,0.00
2014-1-16,29,23,12,28,20,7,96,87,77,0.00,40.00,14,11,0,0.00
2014-1-17,26,19,13,24,14,8,94,83,76,0.00,40.00,11,7,0,0.00
2014-1-18,18,15,12,14,9,-100,90,81,67,0.00,40.00,9,6,0,0.00
2014-1-19,37,23,15,27,18,11,90,79,68,0.00,40.00,15,9,0,0.05
2014-1-20,38,28,16,29,21,10,87,77,62,0.00,40.00,14,7,0,0.00
2014-1-21,17,10,5,6,-2,-7,74,56,37,0.00,40.00,9,5,0,0.00
2014-1-22,12,8,4,9,1,-4,88,74,61,0.00,40.00,13,8,0,0.00
2014-1-23,18,12,8,14,6,1,88,76,48,0.00,40.00,14,8,0,0.00
2014-1-24,20,7,-9,17,0,-14,88,73,58,0.00,40.00,18,12,0,0.01
2014-1-25,29,20,13,27,11,-100,94,74,59,0.00,40.00,22,16,0,0.00
2014-1-26,29,16,5,22,10,-1,90,78,60,0.00,40.00,18,10,0,0.00
2014-1-27,20,6,1,8,0,-5,86,77,60,0.00,40.00,20,14,0,0.00
2014-1-28,6,-1,-9,0,-6,-13,84,77,66,0.00,40.00,13,8,0,0.00
2014-1-29,18,11,0,3,0,-6,77,60,44,0.00,40.00,13,10,0,0.00
2014-1-30,31,22,16,26,12,3,90,64,53,0.00,40.00,19,14,0,0.00
2014-1-31,32,25,21,27,19,15,87,78,70,0.00,40.00,14,5,0,0.00
2014-2-1,30,25,22,28,22,-100,94,91,90,0.00,40.00,7,4,0,0.00
2014-2-2,24,21,9,22,16,6,89,79,70,0.00,40.00,11,6,0,0.00
2014-2-3,24,13,-5,14,6,-9,89,73,56,0.00,40.00,7,3,0,0.14
2014-2-4,25,14,-1,17,8,-4,88,77,55,0.00,40.00,5,2,0,0.00
2014-2-5,25,20,17,17,14,10,91,80,61,0.00,40.00,13,9,0,0.00
2014-2-6,18,10,1,13,6,-4,87,82,76,0.00,40.00,11,8,0,0.00
2014-2-7,10,5,-2,2,-2,-7,82,73,61,0.00,40.00,12,8,0,0.00
2014-2-8,15,9,3,10,3,-4,89,75,59,0.00,40.00,6,5,0,0.00
2014-2-9,17,15,12,13,11,8,90,85,76,0.00,40.00,9,5,0,0.00
2014-2-10,15,12,7,10,6,4,85,78,70,0.00,40.00,12,6,0,0.00
2014-2-11,18,10,3,5,2,-2,86,72,51,0.00,40.00,8,3,0,0.00
2014-2-12,22,9,-7,7,0,-11,84,68,48,0.00,40.00,7,4,0,0.00
2014-2-13,29,20,3,20,9,-1,81,62,45,0.00,40.00,11,6,0,0.00
2014-2-14,23,21,18,19,16,15,88,81,75,0.00,40.00,12,9,0,0.00
2014-2-15,24,19,16,16,10,-100,84,71,59,0.00,40.00,7,4,0,0.00
2014-2-16,29,20,14,20,15,8,90,81,66,0.00,40.00,10,6,0,0.00
2014-2-17,21,17,13,19,13,9,93,82,71,0.00,40.00,15,9,0,0.00
2014-2-18,44,33,24,28,23,19,90,67,48,0.00,40.00,17,12,0,0.30
2014-2-19,43,36,32,30,27,25,91,70,51,0.00,40.00,12,7,0,0.00
2014-2-20,48,37,31,47,34,26,96,86,73,0.00,40.00,17,9,0,0.53
2014-2-21,37,33,29,30,22,13,81,66,46,0.00,40.00,23,17,0,0.01
2014-2-22,34,28,24,22,12,-100,61,53,42,0.00,40.00,12,8,0,0.00
2014-2-23,28,22,19,16,13,10,78,67,56,0.00,40.00,12,8,0,0.00
2014-2-24,23,19,17,11,10,9,75,67,55,0.00,40.00,14,11,0,0.00
2014-2-25,20,18,15,16,11,5,89,71,60,0.00,40.00,14,9,0,0.00
2014-2-26,15,11,8,6,1,-3,81,65,47,0.00,40.00,15,12,0,0.00
2014-2-27,17,9,-5,11,2,-10,84,71,55,0.00,40.00,22,13,0,0.00
2014-2-28,23,8,-12,9,-4,-16,81,59,42,0.00,40.00,12,7,0,0.00
2014-3-1,25,21,14,23,13,-100,92,72,56,0.00,40.00,12,6,0,0.00
2014-3-2,19,12,5,10,6,-1,85,75,58,0.00,40.00,14,5,0,0.02
2014-3-3,22,6,-6,-2,-6,-11,81,61,27,0.00,40.00,7,2,0,0.00
2014-3-4,23,14,1,10,3,-4,76,61,43,0.00,40.00,7,4,0,0.00
2014-3-5,26,20,15,14,11,7,89,70,49,0.00,40.00,7,4,0,0.03
2014-3-6,32,19,9,13,8,4,76,62,42,0.00,40.00,10,5,0,0.02
2014-3-7,44,30,15,29,17,11,85,61,34,0.00,40.00,8,6,0,0.01
2014-3-8,37,29,18,31,23,-100,89,79,67,0.00,40.00,13,8,0,0.01
2014-3-9,18,17,16,15,14,13,89,88,87,0.00,40.00,2,1,0,0.00
2014-3-10,50,47,43,35,33,31,72,59,51,0.00,40.00,10,8,0,0.00
2014-3-11,50,41,35,36,34,31,93,76,50,0.00,40.00,7,3,0,0.00
2014-3-12,37,26,15,34,22,9,96,84,68,0.00,40.00,14,4,0,0.18
2014-3-13,27,20,-5,22,12,-9,81,71,62,0.00,40.00,13,8,0,0.00
2014-3-14,48,40,29,32,29,23,78,64,49,0.00,40.00,16,12,0,0.08
2014-3-15,37,33,28,30,22,-100,79,67,57,0.00,40.00,12,9,0,0.00
2014-3-16,29,20,12,16,6,0,65,53,45,0.00,40.00,11,8,0,0.00
2014-3-17,33,20,8,17,7,-2,75,57,39,0.00,40.00,9,6,0,0.00
2014-3-18,44,34,23,33,25,17,81,69,54,0.00,40.00,11,7,0,0.00
2014-3-19,43,39,34,41,35,30,94,87,75,0.00,40.00,12,8,0,0.54
2014-3-20,40,34,29,29,23,-100,80,68,49,0.00,40.00,12,8,0,0.00
2014-3-21,47,35,26,41,27,-100,88,75,61,0.00,40.00,13,6,0,0.15
2014-3-22,44,34,26,40,27,-100,87,78,72,0.00,40.00,14,10,0,0.01
2014-3-23,26,23,17,19,11,7,77,60,47,0.00,40.00,11,6,0,0.00
2014-3-24,29,22,14,17,11,4,88,64,35,0.00,40.00,10,5,0,0.00
2014-3-25,27,24,20,22,14,8,91,66,49,0.00,40.00,17,10,0,0.00
2014-3-26,35,25,11,17,12,6,87,58,42,0.00,40.00,8,5,0,0.00
2014-3-27,43,37,33,40,27,15,85,69,42,0.00,40.00,15,12,0,0.17
2014-3-28,52,38,29,46,34,25,95,83,73,0.00,40.00,18,12,0,0.11
2014-3-29,39,33,29,30,26,-100,89,81,68,0.00,40.00,12,6,0,0.00
2014-3-30,54,37,21,30,24,19,94,65,33,0.00,40.00,6,2,0,0.00
2014-3-31,65,51,38,33,30,28,69,48,25,0.00,40.00,17,10,0,0.00
2014-4-1,58,44,37,41,28,-100,67,56,38,0.00,40.00,16,11,0,0.00
2014-4-2,51,41,29,30,27,24,88,59,39,0.00,40.00,9,4,0,0.00
2014-4-3,46,40,33,37,32,29,93,74,51,0.00,40.00,15,11,0,0.89
2014-4-4,46,39,35,45,36,29,96,88,76,0.00,40.00,16,11,0,0.15
2014-4-5,45,36,32,29,21,-100,79,60,29,0.00,40.00,17,9,0,0.00
2014-4-6,54,42,30,31,22,18,64,47,28,0.00,40.00,8,4,0,0.00
2014-4-7,54,41,30,33,28,24,89,62,30,0.00,40.00,8,3,0,0.00
2014-4-8,50,41,35,36,33,30,88,72,56,0.00,40.00,12,7,0,0.00
2014-4-9,58,43,26,32,29,23,95,63,33,0.00,40.00,10,4,0,0.00
2014-4-10,63,54,42,41,36,31,80,51,40,0.00,40.00,15,9,0,0.00
2014-4-11,64,50,31,37,26,16,94,50,16,0.00,40.00,8,3,0,0.00
2014-4-12,75,59,47,51,35,-100,58,43,25,0.00,40.00,18,8,0,0.00
2014-4-13,68,63,59,59,53,48,89,70,55,0.00,40.00,15,8,0,0.11
2014-4-14,66,44,28,58,38,25,93,82,70,0.00,40.00,20,16,0,0.07
2014-4-15,32,28,24,25,16,11,89,59,40,0.00,40.00,17,11,0,0.00
2014-4-16,48,36,23,23,17,15,83,50,30,0.00,40.00,14,8,0,0.00
2014-4-17,63,48,37,38,29,24,63,48,31,0.00,40.00,13,9,0,0.00
2014-4-18,51,44,34,39,34,23,85,68,53,0.00,40.00,13,5,0,0.00
2014-4-19,63,46,29,34,28,-100,89,57,30,0.00,40.00,10,6,0,0.00
2014-4-20,74,57,42,36,31,27,56,38,21,0.00,40.00,11,6,0,0.00
2014-4-21,78,63,54,56,41,31,94,48,26,0.00,40.00,10,6,0,0.39
2014-4-22,58,46,38,56,36,28,95,69,50,0.00,40.00,19,14,0,0.11
2014-4-23,50,41,31,31,28,24,85,61,42,0.00,40.00,12,7,0,0.00
2014-4-24,58,51,41,34,28,22,65,43,24,0.00,40.00,17,9,0,0.00
2014-4-25,61,50,42,42,38,27,92,67,38,0.00,40.00,15,7,0,0.32
2014-4-26,49,44,38,39,32,-100,83,66,56,0.00,40.00,15,7,0,0.00
2014-4-27,60,49,38,35,31,26,84,53,31,0.00,40.00,16,12,0,0.00
2014-4-28,58,50,45,41,36,28,76,58,44,0.00,40.00,19,15,0,0.05
2014-4-29,71,56,48,53,46,39,94,73,31,0.00,40.00,18,8,0,0.07
2014-4-30,58,52,45,47,44,36,91,76,56,0.00,40.00,10,6,0,0.01
2014-5-1,48,44,41,42,40,35,92,83,73,0.00,40.00,12,8,0,0.16
2014-5-2,51,47,44,43,42,41,92,83,70,0.00,40.00,11,7,0,0.01
2014-5-3,60,51,46,45,38,-100,87,68,39,0.00,40.00,16,9,0,0.03
2014-5-4,51,47,38,41,32,27,80,58,38,0.00,40.00,18,9,0,0.00
2014-5-5,61,49,37,36,34,31,87,58,32,0.00,40.00,9,4,0,0.00
2014-5-6,67,53,38,38,36,33,84,54,32,0.00,40.00,11,6,0,0.00
2014-5-13,54,53,52,50,49,47,87,85,84,0.00,40.00,8,6,0,0.00
2014-5-14,54,50,45,47,44,41,94,80,61,0.00,40.00,8,5,0,0.38
2014-5-15,49,43,35,47,39,32,95,86,65,0.00,40.00,17,10,0,0.20
2014-5-16,44,37,31,36,33,29,95,84,71,0.00,40.00,9,3,0,0.04
2014-5-17,55,44,31,40,31,-100,95,66,34,0.00,40.00,9,4,0,0.00
2014-5-18,66,53,39,40,36,33,82,55,29,0.00,40.00,9,5,0,0.00
2014-5-19,69,56,44,46,34,-100,76,49,31,0.00,40.00,11,6,0,0.01
2014-5-20,82,69,59,63,52,-100,73,56,50,0.00,40.00,12,7,0,0.00
2014-5-21,81,71,62,66,61,51,93,72,34,0.00,40.00,7,4,0,0.10
2014-5-22,65,56,45,54,45,-100,92,69,48,0.00,40.00,12,6,0,0.00
2014-5-23,62,52,42,46,44,40,94,75,53,0.00,40.00,11,5,0,0.00
2014-5-24,72,56,39,51,43,-100,95,67,41,0.00,40.00,10,3,0,0.00
2014-5-25,79,64,46,55,48,44,94,62,34,0.00,40.00,9,3,0,0.00
2014-5-26,85,70,53,64,57,51,91,65,44,0.00,40.00,7,4,0,0.17
2014-5-27,81,72,65,67,65,62,93,80,56,0.00,40.00,10,6,0,0.15
2014-5-28,76,66,54,62,59,53,96,80,56,0.00,40.00,6,3,0,0.00
2014-5-29,81,67,56,59,56,52,92,69,41,0.00,40.00,9,3,0,0.00
2014-5-30,83,65,51,56,53,49,94,68,32,0.00,40.00,8,2,0,0.00
2014-5-31,86,70,52,58,51,-100,94,58,31,0.00,40.00,6,2,0,0.00
2014-6-1,87,76,63,60,52,47,63,45,27,0.00,40.00,10,7,0,0.00
2014-6-2,79,75,69,69,65,62,88,71,60,0.00,40.00,14,8,0,0.37
2014-6-3,77,70,57,67,56,47,90,63,36,0.00,40.00,14,7,0,0.00
2014-6-4,65,60,54,58,55,51,92,82,68,0.00,40.00,7,3,0,0.18
2014-6-5,71,59,45,51,46,42,94,67,36,0.00,40.00,9,3,0,0.00
2014-6-6,78,62,42,54,44,38,95,61,24,0.00,40.00,7,2,0,0.00
2014-6-7,82,66,48,54,48,-100,94,60,33,0.00,40.00,7,2,0,0.00
2014-6-8,70,63,54,61,56,50,94,78,57,0.00,40.00,10,5,0,0.59
2014-6-9,77,65,52,59,55,50,94,72,51,0.00,40.00,7,3,0,0.00
2014-6-10,74,66,58,62,58,54,91,77,56,0.00,40.00,5,2,0,0.18
2014-6-11,75,66,61,67,63,59,95,89,72,0.00,40.00,6,4,0,0.79
2014-6-12,77,64,56,63,58,55,96,83,61,0.00,40.00,8,4,0,0.00
2014-6-13,65,59,49,56,48,43,91,68,46,0.00,40.00,11,6,0,0.00
2014-6-14,77,60,44,51,43,-100,92,61,30,0.00,40.00,6,2,0,0.00
2014-6-15,81,70,53,63,53,46,90,58,41,0.00,40.00,13,7,0,0.01
2014-6-16,85,77,67,66,62,59,85,62,43,0.00,40.00,7,4,0,0.00
2014-6-17,85,78,73,69,66,61,80,66,44,0.00,40.00,13,7,0,0.28
2014-6-18,77,70,63,71,67,60,94,89,78,0.00,40.00,9,3,0,0.42
2014-6-19,77,70,64,66,64,62,95,83,67,0.00,40.00,7,4,0,0.00
2014-6-20,77,71,65,67,64,60,88,79,71,0.00,40.00,10,5,0,0.01
2014-6-21,81,68,61,69,60,-100,95,79,58,0.00,40.00,5,3,0,0.28
2014-6-22,81,72,61,69,65,60,95,81,64,0.00,40.00,7,2,0,0.00
2014-6-23,80,70,65,71,66,63,94,89,72,0.00,40.00,5,3,0,2.44
2014-6-24,79,72,68,69,68,66,94,88,70,0.00,40.00,6,3,0,0.42
2014-6-25,74,67,63,66,64,61,95,90,76,0.00,40.00,7,3,0,0.00
2014-6-26,76,65,60,66,62,59,96,89,70,0.00,40.00,8,3,0,0.00
2014-6-27,85,72,59,67,63,58,96,76,49,0.00,40.00,6,3,0,0.01
2014-6-28,82,75,69,70,64,-100,84,71,63,0.00,40.00,8,6,0,0.00
2014-6-29,85,78,73,70,68,66,86,72,54,0.00,40.00,8,6,0,0.00
2014-6-30,85,77,67,72,70,65,93,77,58,0.00,40.00,8,6,0,0.36
2014-7-1,80,71,63,65,63,60,96,76,50,0.00,40.00,13,6,0,0.21
2014-7-2,69,66,58,62,58,50,90,75,60,0.00,40.00,10,7,0,0.06
2014-7-3,69,61,52,54,49,43,91,68,41,0.00,40.00,9,6,0,0.17
2014-7-4,76,64,50,54,51,48,94,66,39,0.00,40.00,8,3,0,0.00
2014-7-5,76,66,50,60,53,48,94,67,44,0.00,40.00,6,3,0,0.00
2014-7-6,81,72,59,71,64,57,90,75,65,0.00,40.00,9,5,0,0.00
2014-7-7,81,75,66,69,67,63,92,77,53,0.00,40.00,10,6,0,0.41
2014-7-8,77,70,65,67,63,60,94,79,57,0.00,40.00,12,5,0,0.61
2014-7-9,74,67,56,59,57,55,94,71,54,0.00,40.00,9,5,0,0.00
2014-7-10,75,64,51,57,53,49,95,70,44,0.00,40.00,7,2,0,0.00
2014-7-11,79,65,51,64,56,49,95,75,43,0.00,40.00,5,2,0,0.00
2014-7-12,77,70,64,69,64,60,92,80,67,0.00,40.00,8,4,0,0.00
2014-7-13,80,73,67,72,65,58,94,76,48,0.00,40.00,10,6,0,0.22
2014-7-14,73,67,59,66,61,58,95,81,64,0.00,40.00,4,2,0,0.11
2014-7-15,65,62,58,58,53,52,86,74,61,0.00,40.00,13,8,0,0.00
2014-7-16,66,60,50,54,52,49,94,76,56,0.00,40.00,10,5,0,0.04
2014-7-17,74,60,47,57,50,45,95,73,39,0.00,40.00,5,2,0,0.00
2014-7-18,76,63,51,60,52,49,94,72,40,0.00,40.00,5,2,0,0.00
2014-7-19,79,65,51,60,55,50,95,73,47,0.00,40.00,7,2,0,0.00
2014-7-20,81,68,56,62,58,54,94,74,45,0.00,40.00,7,2,0,0.00
2014-7-21,84,72,58,67,62,56,95,74,50,0.00,40.00,6,2,0,0.00
2014-7-22,86,76,63,70,66,61,93,73,54,0.00,40.00,9,5,0,0.00
2014-7-23,78,68,59,71,60,55,93,77,65,0.00,40.00,13,8,0,0.05
2014-7-24,72,64,53,56,53,49,92,69,48,0.00,40.00,11,4,0,0.00
2014-7-25,75,62,49,59,53,47,93,75,50,0.00,40.00,7,2,0,0.00
2014-7-26,77,65,58,66,60,56,93,81,69,0.00,40.00,5,2,0,0.00
2014-7-27,81,70,63,70,64,57,95,83,55,0.00,40.00,16,5,0,0.00
2014-7-28,62,59,52,58,52,47,88,79,65,0.00,40.00,15,10,0,0.00
2014-7-29,72,60,45,58,53,44,95,76,53,0.00,40.00,9,4,0,0.00
2014-7-30,71,63,52,59,56,51,95,79,63,0.00,40.00,9,4,0,0.00
2014-7-31,79,61,51,61,53,50,95,76,47,0.00,40.00,8,3,0,0.00
2014-8-1,81,69,58,64,60,56,94,75,43,0.00,40.00,6,2,0,0.00
2014-8-2,81,68,55,62,58,53,95,73,46,0.00,40.00,9,2,0,0.00
2014-8-3,83,66,51,65,57,49,95,76,47,0.00,40.00,7,2,0,0.00
2014-8-4,82,71,61,65,62,59,94,75,47,0.00,40.00,6,2,0,0.00
2014-8-5,78,70,64,67,64,61,95,82,68,0.00,40.00,8,3,0,0.71
2014-8-6,80,70,58,65,60,56,95,72,45,0.00,40.00,9,3,0,0.00
2014-8-7,81,76,62,60,58,55,89,55,41,0.00,40.00,4,2,0,0.00
2014-8-8,82,69,56,62,58,54,95,70,42,0.00,40.00,7,2,0,0.00
2014-8-9,80,70,58,61,57,51,94,66,37,0.00,40.00,5,3,0,0.00
2014-8-10,84,72,57,67,62,55,94,73,53,0.00,40.00,5,2,0,0.00
2014-8-11,77,70,66,69,66,63,93,85,72,0.00,40.00,6,3,0,0.30
2014-8-12,67,62,57,65,60,54,94,91,86,0.00,40.00,14,7,0,0.19
2014-8-13,74,63,50,60,54,49,96,75,50,0.00,40.00,9,3,0,0.00
2014-8-14,68,60,52,51,47,43,93,67,42,0.00,40.00,12,5,0,0.00
2014-8-15,72,57,42,55,46,41,95,71,34,0.00,40.00,7,2,0,0.00
2014-8-16,79,64,53,66,57,50,90,74,60,0.00,40.00,9,4,0,0.00
2014-8-17,80,72,65,69,66,63,94,81,65,0.00,40.00,6,3,0,0.00
2014-8-18,79,70,62,68,64,60,95,83,66,0.00,40.00,7,1,0,0.00
2014-8-19,82,72,64,70,66,62,95,83,63,0.00,40.00,11,4,0,0.11
2014-8-20,82,73,62,67,64,61,95,76,53,0.00,40.00,7,3,0,0.00
2014-8-21,80,73,67,71,68,65,94,86,70,0.00,40.00,5,2,0,0.02
2014-8-22,84,74,67,72,69,65,95,85,68,0.00,40.00,7,1,0,0.00
2014-8-23,85,74,69,72,68,67,95,80,61,0.00,40.00,6,2,0,0.00
2014-8-24,84,76,68,71,67,63,87,74,62,0.00,40.00,6,5,0,0.00
2014-8-25,88,75,68,74,68,65,91,78,57,0.00,40.00,7,4,0,0.00
2014-8-26,79,70,65,71,66,63,93,88,76,0.00,40.00,12,3,0,0.51
2014-8-27,78,67,58,62,60,56,95,79,54,0.00,40.00,9,3,0,0.00
2014-8-28,77,66,53,62,58,51,94,78,58,0.00,40.00,4,2,0,0.00
2014-8-29,77,70,65,72,64,57,86,79,71,0.00,40.00,9,6,0,0.18
2014-8-30,81,73,69,70,67,65,93,81,68,0.00,40.00,11,6,0,0.09
2014-8-31,82,72,65,71,67,63,94,84,56,0.00,40.00,5,3,0,0.31
2014-9-1,81,73,68,71,68,65,93,83,62,0.00,40.00,10,6,0,0.61
2014-9-2,79,72,63,67,63,58,94,77,50,0.00,40.00,7,3,0,0.00
2014-9-3,82,70,59,66,60,51,95,74,34,0.00,40.00,5,2,0,0.00
2014-9-4,81,71,65,69,65,59,94,79,63,0.00,40.00,10,6,0,0.47
2014-9-5,86,76,66,73,69,64,93,80,65,0.00,40.00,15,6,0,0.50
2014-9-6,70,64,54,63,56,49,93,74,49,0.00,40.00,11,6,0,0.00
2014-9-7,75,63,51,60,53,48,93,74,47,0.00,40.00,5,2,0,0.00
2014-9-8,76,64,52,59,54,50,94,74,47,0.00,40.00,5,2,0,0.00
2014-9-9,77,66,57,63,58,55,93,77,57,0.00,40.00,7,4,0,0.00
2014-9-10,77,69,60,70,64,57,94,85,77,0.00,40.00,17,8,0,0.96
2014-9-11,58,54,52,55,50,48,92,85,74,0.00,40.00,13,9,0,0.05
2014-9-12,59,51,44,48,46,43,95,82,61,0.00,40.00,4,2,0,0.08
2014-9-13,60,51,44,48,45,42,94,80,55,0.00,40.00,10,5,0,0.35
2014-9-14,63,51,39,49,43,38,95,77,48,0.00,40.00,6,2,0,0.00
2014-9-15,62,53,45,53,48,44,95,86,66,0.00,40.00,5,3,0,0.04
2014-9-16,63,53,40,50,46,39,96,80,51,0.00,40.00,8,2,0,0.00
2014-9-17,65,52,40,48,44,39,95,76,48,0.00,40.00,8,3,0,0.00
2014-9-18,72,55,39,53,46,38,96,76,47,0.00,40.00,7,2,0,0.00
2014-9-19,71,59,51,53,50,49,94,75,46,0.00,40.00,9,5,0,0.00
2014-9-20,79,64,54,66,56,48,94,76,61,0.00,40.00,10,6,0,0.05
2014-9-21,67,60,53,65,54,44,95,81,71,0.00,40.00,18,11,0,0.05
2014-9-22,60,51,37,47,42,35,94,73,58,0.00,40.00,9,4,0,0.00
2014-9-23,70,55,42,52,46,41,94,76,45,0.00,40.00,7,2,0,0.00
2014-9-24,74,57,45,57,48,43,95,76,43,0.00,40.00,6,2,0,0.00
2014-9-25,78,62,50,56,52,48,92,72,40,0.00,40.00,7,2,0,0.00
2014-9-26,79,62,47,57,52,45,94,72,36,0.00,40.00,4,2,0,0.00
2014-9-27,80,63,47,62,54,45,94,74,43,0.00,40.00,4,2,0,0.00
2014-9-28,78,62,49,59,54,48,95,78,46,0.00,40.00,7,1,0,0.00
2014-9-29,77,60,45,58,52,44,96,78,46,0.00,40.00,9,3,0,0.00
2014-9-30,56,52,46,53,47,43,92,82,69,0.00,40.00,8,4,0,0.03
2014-10-1,67,57,52,51,49,48,91,76,56,0.00,40.00,7,4,0,0.00
2014-10-2,73,64,57,64,57,49,93,78,66,0.00,40.00,8,5,0,0.16
2014-10-3,64,58,48,63,53,41,95,85,71,0.00,40.00,14,9,0,1.13
2014-10-4,47,42,37,41,36,33,94,80,68,0.00,40.00,13,8,0,0.72
2014-10-5,54,47,41,40,37,32,85,67,45,0.00,40.00,10,6,0,0.01
2014-10-6,59,52,44,49,42,36,91,71,48,0.00,40.00,11,6,0,0.04
2014-10-7,62,52,42,51,44,36,91,76,59,0.00,40.00,9,5,0,0.00
2014-10-8,60,54,46,47,40,34,89,61,39,0.00,40.00,14,7,0,0.00
2014-10-9,56,46,34,42,38,32,94,74,41,0.00,40.00,10,4,0,0.00
2014-10-10,58,44,31,42,36,30,96,77,50,0.00,40.00,8,2,0,0.00
2014-10-11,61,42,29,40,33,28,96,72,33,0.00,40.00,7,2,0,0.00
2014-10-12,62,48,33,41,35,31,96,64,37,0.00,40.00,8,5,0,0.00
2014-10-13,71,61,52,64,56,40,95,83,56,0.00,40.00,11,5,0,0.09
2014-10-14,70,63,56,62,59,53,92,85,75,0.00,40.00,11,6,0,0.34
2014-10-15,59,56,53,54,52,51,94,87,75,0.00,40.00,5,2,0,0.01
2014-10-16,58,54,47,53,51,46,96,89,80,0.00,40.00,8,4,0,0.01
2014-10-17,59,54,49,51,49,45,92,83,72,0.00,40.00,15,9,0,0.00
2014-10-18,49,46,42,44,40,35,92,80,72,0.00,40.00,13,10,0,0.15
2014-10-19,53,41,29,40,34,28,96,78,53,0.00,40.00,7,3,0,0.00
2014-10-20,56,50,45,49,45,41,91,83,76,0.00,40.00,10,6,0,0.01
2014-10-21,51,46,32,44,41,31,94,82,65,0.00,40.00,7,4,0,0.08
2014-10-22,56,39,27,39,33,26,96,81,41,0.00,40.00,7,1,0,0.01
2014-10-23,59,49,34,43,40,34,96,73,49,0.00,40.00,6,3,0,0.00
2014-10-24,61,52,44,50,45,41,95,77,66,0.00,40.00,6,3,0,0.00
2014-10-25,65,57,48,54,46,37,93,70,39,0.00,40.00,13,7,0,0.00
2014-10-26,57,50,34,39,36,33,94,61,45,0.00,40.00,12,5,0,0.00
2014-10-27,74,61,38,58,46,32,95,59,43,0.00,40.00,10,7,0,0.00
2014-10-28,71,58,50,58,46,35,90,64,46,0.00,40.00,12,9,0,0.18
2014-10-29,50,46,44,37,36,34,77,66,54,0.00,40.00,10,7,0,0.01
2014-10-30,50,46,43,38,36,34,81,70,54,0.00,40.00,6,2,0,0.00
2014-10-31,48,39,33,40,33,22,89,78,63,0.00,40.00,18,10,0,0.30
2014-11-1,41,31,23,24,20,18,93,63,38,0.00,40.00,11,6,0,0.00
2014-11-2,52,43,23,33,25,21,93,50,29,0.00,40.00,6,5,0,0.00
2014-11-3,59,52,43,40,30,23,53,43,32,0.00,40.00,10,7,0,0.00
2014-11-4,58,52,45,49,41,29,94,69,32,0.00,40.00,12,9,0,0.02
2014-11-5,56,49,40,40,37,35,86,66,45,0.00,40.00,8,5,0,0.00
2014-11-6,51,44,38,43,38,30,91,79,52,0.00,40.00,19,10,0,0.07
2014-11-7,40,36,32,35,32,30,95,84,69,0.00,40.00,6,3,0,0.17
2014-11-8,44,40,38,38,32,28,88,71,61,0.00,40.00,16,8,0,0.02
2014-11-9,45,40,32,33,29,27,79,66,54,0.00,40.00,12,5,0,0.00
2014-11-10,57,48,41,41,37,33,76,65,53,0.00,40.00,12,7,0,0.00
2014-11-11,55,46,34,44,38,26,93,72,55,0.00,40.00,14,10,0,0.28
2014-11-12,34,31,30,25,21,19,70,67,62,0.00,40.00,14,9,0,0.00
2014-11-13,29,27,26,24,21,17,90,76,61,0.00,40.00,11,7,0,0.00
2014-11-14,29,28,26,23,20,17,86,73,63,0.00,40.00,9,7,0,0.00
2014-11-15,31,25,19,19,16,13,78,66,52,0.00,40.00,7,4,0,0.01
2014-11-16,31,28,26,26,22,16,85,76,62,0.00,40.00,8,6,0,0.00
2014-11-17,30,21,15,26,15,9,87,75,63,0.00,40.00,15,10,0,0.00
2014-11-18,19,16,15,13,11,8,87,77,61,0.00,40.00,12,10,0,0.00
2014-11-19,29,22,14,21,14,7,86,71,61,0.00,40.00,16,11,0,0.00
2014-11-20,25,24,23,14,10,6,62,54,45,0.00,40.00,16,13,0,0.00
2014-11-21,30,24,19,15,12,10,75,60,47,0.00,40.00,13,6,0,0.00
2014-11-22,49,37,26,45,33,13,94,82,57,0.00,40.00,10,7,0,0.10
2014-11-23,52,50,48,49,46,42,95,85,77,0.00,40.00,10,8,0,0.81
2014-11-24,50,40,29,49,38,25,95,90,82,0.00,40.00,19,11,0,0.83
2014-11-25,29,27,26,25,22,20,85,80,74,0.00,40.00,13,8,0,0.00
2014-11-26,27,26,23,22,19,18,88,77,71,0.00,40.00,7,3,0,0.00
2014-11-27,30,27,23,27,21,13,94,79,63,0.00,40.00,14,7,0,0.00
2014-11-28,29,23,20,22,16,12,80,72,63,0.00,40.00,11,6,0,0.00
2014-11-29,50,39,30,46,31,22,83,73,64,0.00,40.00,15,10,0,0.01
2014-11-30,55,46,35,50,43,32,94,88,80,0.00,40.00,13,10,0,0.00
2014-12-1,34,24,15,29,17,10,80,72,61,0.00,40.00,15,10,0,0.00
2014-12-2,34,24,14,28,18,10,92,79,61,0.00,40.00,9,5,0,0.00
2014-12-3,35,32,29,29,23,19,93,71,56,0.00,40.00,15,9,0,0.00
2014-12-4,33,28,23,21,19,16,88,67,55,0.00,40.00,7,4,0,0.00
2014-12-5,37,33,31,30,27,22,91,79,67,0.00,40.00,6,3,0,0.00
2014-12-6,42,34,26,32,27,20,88,75,51,0.00,40.00,10,5,0,0.00
2014-12-7,35,29,22,25,19,15,85,66,51,0.00,40.00,12,6,0,0.00
2014-12-8,36,33,31,33,29,24,95,84,73,0.00,40.00,11,7,0,0.25
2014-12-9,39,36,33,35,32,25,96,86,73,0.00,40.00,10,6,0,0.02
2014-12-10,36,29,25,25,23,21,91,74,61,0.00,40.00,8,4,0,0.00
2014-12-11,31,27,20,26,23,18,92,81,76,0.00,40.00,10,5,0,0.00
2014-12-12,35,32,29,33,30,27,97,91,86,0.00,40.00,8,6,0,0.00
2014-12-13,45,39,35,42,37,32,95,91,87,0.00,40.00,10,7,0,0.00
2014-12-14,53,47,45,45,43,42,94,83,73,0.00,40.00,7,6,0,0.00
2014-12-15,49,45,42,44,41,38,95,86,70,0.00,40.00,12,9,0,0.07
2014-12-16,43,40,32,42,39,31,95,93,90,0.00,40.00,14,8,0,0.12
2014-12-17,33,29,27,29,22,19,85,76,68,0.00,40.00,14,11,0,0.00
2014-12-18,28,27,27,26,23,20,95,81,73,0.00,40.00,8,6,0,0.00
2014-12-19,33,27,21,27,23,20,95,83,63,0.00,40.00,6,2,0,0.00
2014-12-20,30,25,19,26,22,16,92,88,81,0.00,40.00,4,2,0,0.00
2014-12-21,35,31,29,28,26,25,89,82,73,0.00,40.00,9,6,0,0.00
2014-12-22,36,32,28,34,28,24,91,84,77,0.00,40.00,10,8,0,0.02
2014-12-23,50,44,38,43,38,35,94,82,63,0.00,40.00,10,7,0,0.03
2014-12-24,41,39,36,38,36,34,94,92,85,0.00,40.00,9,5,0,0.24
2014-12-25,37,36,35,34,30,29,90,80,73,0.00,40.00,12,10,0,0.00
2014-12-26,50,41,34,40,34,31,87,77,61,0.00,40.00,9,8,0,0.00